Lower Island Cove, Canada
Current Conditions -  °F | °C
As of 12:00 AM on Saturday 20 Dec 2014 (Local Time) from CYYT Reporting Station
Snow Showers Snow Showers  
Wind Chill: 23°   Ceiling: 900
Heat Index: 32°   Visibility: 10mi
Dew Point: 30°   Wind: 12mph
Humidity: 93%   Direction: 330°NNW
Pressure: 29.75"   Gusts: NA
Location:  48°N, 53°W
Report Text: CYYT 200300Z 33010KT 10SM -SHSN OVC009 M00/M01 A2975 RMK SF8 PRESRR SLP081
Loading
Personal Weather Stations






























Interactive Weather Map New forecast layout! Learn more

10-Day Weather Forecast

Advertisements
Track Severe Weather on mobile